Time;durP1;ratioP1;P1;durP2;ratioP2;P2;SDS_P1;SDS_P2;PMS_P1;PMS_P2;Temp;Humidity;BMP_temperature;BMP_pressure;BME280_temperature;BME280_humidity;BME280_pressure;Samples;Min_cycle;Max_cycle;Signal;HPM_P1;HPM_P2
2023/07/07 00:01:38;;;;;;;6.00;3.33;;;;;;;14.41;79.93;102038.59;6114187;19;20043;-69
2023/07/07 00:03:43;;;;;;;7.55;3.47;;;;;;;14.37;80.16;102042.25;6112950;19;20030;-68
2023/07/07 00:05:49;;;;;;;7.75;2.95;;;;;;;14.33;80.69;102039.81;6112231;19;20019;-69
2023/07/07 00:07:57;;;;;;;6.32;3.03;;;;;;;14.30;80.38;102039.91;6109856;19;20017;-69
2023/07/07 00:10:03;;;;;;;5.85;2.90;;;;;;;14.31;80.10;102045.13;6111553;19;20007;-69
2023/07/07 00:12:10;;;;;;;5.55;2.97;;;;;;;14.30;81.19;102045.19;6112606;19;20357;-70
2023/07/07 00:14:16;;;;;;;7.38;3.40;;;;;;;14.31;81.03;102047.78;6111221;19;20007;-71
2023/07/07 00:16:27;;;;;;;9.25;3.38;;;;;;;14.25;81.53;102045.38;6111231;19;20039;-71
2023/07/07 00:18:33;;;;;;;7.00;3.03;;;;;;;14.24;80.53;102046.28;6112869;19;20010;-71
2023/07/07 00:20:38;;;;;;;6.30;3.05;;;;;;;14.18;80.85;102038.59;6112481;19;20035;-71
2023/07/07 00:22:43;;;;;;;6.70;3.05;;;;;;;14.17;80.90;102045.66;6110664;19;20038;-71
2023/07/07 00:24:51;;;;;;;5.30;2.83;;;;;;;14.18;81.32;102043.88;6110964;19;20014;-71
2023/07/07 00:26:56;;;;;;;9.43;3.08;;;;;;;14.17;81.58;102036.88;6108813;19;20043;-69
2023/07/07 00:29:03;;;;;;;8.27;3.45;;;;;;;14.13;81.79;102032.59;6113495;19;20070;-70
2023/07/07 00:31:08;;;;;;;6.75;3.08;;;;;;;14.11;81.54;102039.72;6111979;19;20010;-70
2023/07/07 00:33:14;;;;;;;6.75;3.17;;;;;;;14.08;81.46;102034.53;6113568;19;20033;-71
2023/07/07 00:35:19;;;;;;;7.30;3.35;;;;;;;14.05;82.54;102031.09;6111265;19;20489;-71
2023/07/07 00:37:24;;;;;;;7.13;3.20;;;;;;;14.02;81.81;102035.63;6112349;19;20022;-72
2023/07/07 00:39:30;;;;;;;4.55;2.67;;;;;;;14.01;82.43;102034.78;6111965;19;20077;-70
2023/07/07 00:41:39;;;;;;;6.10;3.05;;;;;;;13.98;81.55;102034.88;6112745;19;20390;-70
2023/07/07 00:44:02;;;;;;;7.13;3.83;;;;;;;13.96;82.28;102034.06;6112676;19;20030;-71
2023/07/07 00:46:08;;;;;;;7.60;3.40;;;;;;;13.94;82.52;102030.63;6112277;19;20452;-71
2023/07/07 00:48:18;;;;;;;6.68;2.83;;;;;;;13.88;82.23;102020.28;6111727;19;20081;-71
2023/07/07 00:50:27;;;;;;;7.55;3.50;;;;;;;13.89;83.13;102021.97;6111777;19;19999;-71
2023/07/07 00:52:34;;;;;;;5.85;3.22;;;;;;;13.84;82.66;102018.63;6110355;19;20446;-71
2023/07/07 00:54:40;;;;;;;5.95;3.03;;;;;;;13.81;83.04;102018.75;6111855;19;20014;-72
2023/07/07 00:56:52;;;;;;;6.95;3.22;;;;;;;13.78;83.01;102016.22;6112218;19;20018;-72
2023/07/07 00:59:03;;;;;;;8.48;3.55;;;;;;;13.79;83.09;102023.22;6109160;19;20495;-70
2023/07/07 01:01:14;;;;;;;5.97;3.00;;;;;;;13.75;83.46;102026.91;6112163;19;20432;-70
2023/07/07 01:03:23;;;;;;;9.65;3.67;;;;;;;13.72;84.41;102019.94;6110670;19;20011;-70
2023/07/07 01:05:37;;;;;;;6.68;3.05;;;;;;;13.65;82.83;102013.16;6111641;19;20498;-71
2023/07/07 01:07:51;;;;;;;5.68;2.97;;;;;;;13.57;83.13;102018.69;6111570;19;20344;-71
2023/07/07 01:09:56;;;;;;;7.15;3.25;;;;;;;13.56;83.69;102016.97;6110452;19;20400;-70
2023/07/07 01:12:12;;;;;;;7.68;3.10;;;;;;;13.59;85.26;102018.66;6108383;19;20077;-71
2023/07/07 01:14:21;;;;;;;7.05;3.70;;;;;;;13.54;84.47;102013.50;6110195;19;20026;-71
2023/07/07 01:16:35;;;;;;;5.72;2.90;;;;;;;13.50;83.62;102017.16;6107147;19;20021;-71
2023/07/07 01:18:50;;;;;;;6.22;3.17;;;;;;;13.50;84.40;102014.53;6111335;19;20509;-71
2023/07/07 01:21:03;;;;;;;8.27;3.20;;;;;;;13.47;83.63;102008.50;6109367;19;20011;-70
2023/07/07 01:23:56;;;;;;;5.82;2.85;;;;;;;13.49;83.97;102004.88;6112654;19;20037;-71
2023/07/07 01:26:26;;;;;;;6.78;2.85;;;;;;;13.48;83.62;102010.19;6109813;19;20010;-71
2023/07/07 01:28:53;;;;;;;7.20;3.30;;;;;;;13.46;83.32;102002.34;6111507;19;20507;-71
2023/07/07 01:31:06;;;;;;;6.55;2.90;;;;;;;13.46;84.04;102010.28;6105702;19;20496;-72
2023/07/07 01:33:20;;;;;;;5.88;3.10;;;;;;;13.45;84.74;102011.16;6111934;19;20059;-72
2023/07/07 01:35:28;;;;;;;6.50;3.15;;;;;;;13.48;83.56;102008.44;6112921;19;20474;-72
2023/07/07 01:37:33;;;;;;;6.72;3.20;;;;;;;13.45;84.07;102010.31;6112494;19;20553;-72
2023/07/07 01:39:39;;;;;;;6.65;3.13;;;;;;;13.39;83.61;102006.97;6110793;19;20100;-73
2023/07/07 01:41:54;;;;;;;7.82;3.10;;;;;;;13.40;83.96;102010.47;6110310;19;20022;-71
2023/07/07 01:44:06;;;;;;;7.28;3.70;;;;;;;13.38;83.36;102002.59;6111298;19;20026;-72
2023/07/07 01:46:21;;;;;;;6.10;3.55;;;;;;;13.41;83.76;102004.28;6110893;19;20035;-73
2023/07/07 01:48:32;;;;;;;8.98;4.20;;;;;;;13.39;83.96;102000.81;6110417;19;20023;-71
2023/07/07 01:50:41;;;;;;;8.65;4.10;;;;;;;13.34;83.60;102005.41;6110530;19;20043;-71
2023/07/07 01:52:49;;;;;;;6.80;3.22;;;;;;;13.34;83.57;102002.75;6110884;19;20024;-71
2023/07/07 01:55:02;;;;;;;8.18;4.05;;;;;;;13.34;83.90;102003.63;6112426;19;20022;-71
2023/07/07 01:57:09;;;;;;;8.60;4.20;;;;;;;13.34;83.66;102003.63;6107524;19;20006;-71
2023/07/07 01:59:15;;;;;;;8.07;4.03;;;;;;;13.31;83.84;102009.00;6112923;19;20014;-71
2023/07/07 02:01:23;;;;;;;9.93;4.47;;;;;;;13.34;84.38;102005.41;6110800;19;20027;-72
2023/07/07 02:03:29;;;;;;;9.25;4.50;;;;;;;13.30;84.30;102009.06;6110696;19;20365;-70
2023/07/07 02:05:34;;;;;;;7.35;3.92;;;;;;;13.28;84.47;102010.88;6112117;19;20007;-70
2023/07/07 02:07:41;;;;;;;7.85;4.00;;;;;;;13.24;84.20;102014.50;6110027;19;20078;-69
2023/07/07 02:09:46;;;;;;;8.88;3.90;;;;;;;13.18;83.87;102008.50;6111576;19;20523;-71
2023/07/07 02:12:01;;;;;;;11.10;4.82;;;;;;;13.17;84.35;102011.22;6111735;19;20039;-71
2023/07/07 02:14:16;;;;;;;10.15;4.35;;;;;;;13.14;84.62;102004.25;6109315;19;20024;-71
2023/07/07 02:16:23;;;;;;;9.38;4.97;;;;;;;13.14;84.80;102003.41;6114274;19;20074;-71
2023/07/07 02:18:28;;;;;;;9.07;4.55;;;;;;;13.11;85.10;102004.34;6116108;19;20093;-71
2023/07/07 02:20:33;;;;;;;9.95;5.28;;;;;;;13.10;85.78;101994.69;6115012;19;19998;-71
2023/07/07 02:22:41;;;;;;;9.27;4.60;;;;;;;13.07;85.19;102001.88;6115128;19;20011;-72
2023/07/07 02:24:46;;;;;;;10.07;4.70;;;;;;;13.09;85.34;102005.31;6115805;19;20025;-70
2023/07/07 02:26:52;;;;;;;9.85;5.20;;;;;;;13.06;85.64;102008.03;6116992;19;20452;-71
2023/07/07 02:28:57;;;;;;;9.23;4.65;;;;;;;13.03;85.70;102001.06;6112115;19;20014;-71
2023/07/07 02:31:02;;;;;;;11.90;5.47;;;;;;;13.01;86.63;102002.94;6116424;19;20014;-71
2023/07/07 02:33:11;;;;;;;10.73;5.25;;;;;;;13.04;85.80;102001.97;6115639;19;20364;-70
2023/07/07 02:35:16;;;;;;;9.65;4.80;;;;;;;13.03;86.56;102001.06;6118485;19;20121;-71
2023/07/07 02:37:22;;;;;;;10.35;5.30;;;;;;;12.99;86.30;102002.09;6115766;19;20078;-71
2023/07/07 02:39:33;;;;;;;10.73;6.07;;;;;;;12.99;86.32;102002.09;6116328;19;20359;-71
2023/07/07 02:41:38;;;;;;;10.48;4.90;;;;;;;12.96;86.76;102002.22;6114474;19;20015;-71
2023/07/07 02:43:43;;;;;;;9.90;5.70;;;;;;;12.96;87.08;102005.72;6116120;19;20043;-71
2023/07/07 02:45:46;;;;;;;10.98;5.43;;;;;;;12.95;86.53;102005.75;6117359;19;20018;-70
2023/07/07 02:47:51;;;;;;;10.73;5.20;;;;;;;12.91;86.18;102006.75;6115796;19;20082;-72
2023/07/07 02:49:56;;;;;;;14.43;5.95;;;;;;;12.87;87.11;102002.47;6114413;19;20078;-71
2023/07/07 02:52:01;;;;;;;12.23;6.03;;;;;;;12.87;87.75;102007.75;6114031;19;20470;-71
2023/07/07 02:54:07;;;;;;;9.80;5.10;;;;;;;12.85;87.47;102004.28;6114519;19;20010;-71
2023/07/07 02:56:13;;;;;;;11.98;5.75;;;;;;;12.84;86.64;102010.50;6115117;19;20452;-70
2023/07/07 02:58:18;;;;;;;10.10;5.72;;;;;;;12.81;87.75;102007.97;6114321;19;20014;-68
2023/07/07 03:00:24;;;;;;;10.60;5.30;;;;;;;12.80;88.06;102016.81;6114105;19;20019;-70
2023/07/07 03:02:29;;;;;;;11.70;6.13;;;;;;;12.80;88.54;102019.44;6113888;19;20138;-72
2023/07/07 03:04:35;;;;;;;11.98;6.50;;;;;;;12.80;88.66;102014.16;6115959;19;20027;-71
2023/07/07 03:06:42;;;;;;;11.18;5.50;;;;;;;12.74;88.40;102020.47;6115728;19;20039;-72
2023/07/07 03:08:48;;;;;;;10.65;5.93;;;;;;;12.76;88.91;102020.44;6112797;19;20089;-71
2023/07/07 03:10:50;;;;;;;12.07;6.72;;;;;;;12.77;89.46;102020.41;6114950;19;20041;-71
2023/07/07 03:12:55;;;;;;;10.50;5.82;;;;;;;12.78;89.13;102018.63;6108298;19;20010;-71
2023/07/07 03:15:04;;;;;;;11.38;5.53;;;;;;;12.74;88.34;102018.72;6113827;19;20011;-69
2023/07/07 03:17:09;;;;;;;12.77;5.55;;;;;;;12.70;88.10;102022.34;6106169;19;20018;-72
2023/07/07 03:19:14;;;;;;;11.90;6.03;;;;;;;12.68;89.10;102026.78;6113593;19;20019;-71
2023/07/07 03:21:20;;;;;;;13.23;6.18;;;;;;;12.67;89.14;102019.81;6115437;19;20014;-71
2023/07/07 03:23:28;;;;;;;10.32;5.57;;;;;;;12.65;88.36;102008.44;6112729;19;20082;-69
2023/07/07 03:25:35;;;;;;;10.70;5.80;;;;;;;12.64;88.05;102012.00;6113609;19;20007;-69
2023/07/07 03:27:41;;;;;;;12.77;5.70;;;;;;;12.63;88.04;102018.16;6110388;19;20499;-69
2023/07/07 03:29:47;;;;;;;10.35;5.03;;;;;;;12.58;87.98;102019.22;6114190;19;20061;-70
2023/07/07 03:31:52;;;;;;;11.65;5.95;;;;;;;12.58;88.87;102013.94;6115663;19;20438;-69
2023/07/07 03:34:02;;;;;;;10.90;6.40;;;;;;;12.57;88.77;102023.63;6114058;19;20166;-69
2023/07/07 03:36:09;;;;;;;11.18;6.00;;;;;;;12.56;89.91;102014.00;6113625;19;20400;-70
2023/07/07 03:38:15;;;;;;;12.63;6.18;;;;;;;12.53;88.94;102016.69;6114605;19;20441;-69
2023/07/07 03:40:23;;;;;;;15.43;6.35;;;;;;;12.48;89.14;102023.88;6114049;19;20011;-69
2023/07/07 03:42:28;;;;;;;10.02;5.75;;;;;;;12.49;88.46;102020.34;6115460;19;20095;-69
2023/07/07 03:44:33;;;;;;;10.65;5.80;;;;;;;12.49;89.42;102026.47;6114824;19;20002;-69
2023/07/07 03:46:39;;;;;;;11.23;5.50;;;;;;;12.51;89.47;102018.53;6115465;19;20025;-69
2023/07/07 03:48:46;;;;;;;13.45;6.10;;;;;;;12.52;89.80;102015.84;6113492;19;20007;-69
2023/07/07 03:50:59;;;;;;;10.25;5.32;;;;;;;12.53;89.00;102016.69;6114022;19;20042;-69
2023/07/07 03:53:05;;;;;;;10.05;5.78;;;;;;;12.60;90.11;102018.25;6109496;19;20010;-70
2023/07/07 03:55:12;;;;;;;13.55;5.97;;;;;;;12.61;90.00;102013.84;6114019;19;20014;-69
2023/07/07 03:57:20;;;;;;;11.27;5.50;;;;;;;12.57;89.94;102013.06;6114920;19;20083;-69
2023/07/07 03:59:25;;;;;;;12.93;5.95;;;;;;;12.65;90.91;102020.75;6113210;19;20018;-69
2023/07/07 04:01:32;;;;;;;14.18;6.88;;;;;;;12.71;90.70;102016.16;6114154;19;20456;-69
2023/07/07 04:03:38;;;;;;;13.27;6.18;;;;;;;12.69;90.10;102018.00;6113269;19;20463;-69
2023/07/07 04:05:45;;;;;;;11.80;6.05;;;;;;;12.84;90.27;102018.41;6114136;19;20014;-69
2023/07/07 04:07:50;;;;;;;9.25;5.20;;;;;;;12.87;89.19;102024.44;6114021;19;20022;-69
2023/07/07 04:09:55;;;;;;;11.60;5.50;;;;;;;12.93;89.12;102020.78;6113043;19;20475;-69
2023/07/07 04:12:03;;;;;;;13.40;6.07;;;;;;;13.00;88.70;102022.28;6112749;19;20053;-70
2023/07/07 04:14:11;;;;;;;9.13;4.90;;;;;;;13.09;87.90;102019.38;6112467;19;20013;-69
2023/07/07 04:16:20;;;;;;;10.43;5.53;;;;;;;13.14;87.65;102028.00;6113743;19;20010;-68
2023/07/07 04:18:25;;;;;;;10.32;4.90;;;;;;;13.23;88.05;102031.25;6112376;19;20097;-69
2023/07/07 04:20:35;;;;;;;10.23;5.18;;;;;;;13.31;87.15;102021.34;6112481;19;20027;-71
2023/07/07 04:22:41;;;;;;;9.55;5.20;;;;;;;13.35;86.77;102028.25;6112444;19;20086;-71
2023/07/07 04:24:46;;;;;;;10.50;4.05;;;;;;;13.36;86.47;102025.56;6112675;19;20018;-71
2023/07/07 04:26:52;;;;;;;7.53;4.22;;;;;;;13.44;86.30;102030.56;6110250;19;20084;-71
2023/07/07 04:28:59;;;;;;;8.02;4.28;;;;;;;13.46;86.14;102031.41;6103349;19;20011;-71
2023/07/07 04:31:09;;;;;;;12.23;4.80;;;;;;;13.51;86.15;102018.91;6112557;19;20031;-71
2023/07/07 04:33:14;;;;;;;10.85;4.53;;;;;;;13.52;86.23;102015.34;6111253;19;20018;-71
2023/07/07 04:35:19;;;;;;;9.70;4.40;;;;;;;13.57;85.95;102018.69;6109555;19;20007;-71
2023/07/07 04:37:24;;;;;;;9.27;4.70;;;;;;;13.69;85.71;102021.81;6111764;19;20022;-71
2023/07/07 04:39:29;;;;;;;8.15;4.55;;;;;;;13.84;84.77;102021.28;6111049;19;20047;-71
2023/07/07 04:41:34;;;;;;;9.85;4.68;;;;;;;13.86;84.77;102024.75;6110503;19;20029;-71
2023/07/07 04:43:42;;;;;;;7.32;4.00;;;;;;;13.96;84.31;102022.66;6112133;19;20483;-71
2023/07/07 04:45:47;;;;;;;8.90;4.32;;;;;;;14.09;84.09;102026.56;6111543;19;20487;-70
2023/07/07 04:47:54;;;;;;;10.18;4.20;;;;;;;14.21;84.33;102018.16;6111651;19;20535;-71
2023/07/07 04:50:01;;;;;;;10.18;4.20;;;;;;;14.38;82.43;102014.91;6112362;19;20013;-71
2023/07/07 04:52:08;;;;;;;10.35;4.43;;;;;;;14.55;82.05;102022.22;6111290;19;20062;-70
2023/07/07 04:54:16;;;;;;;8.23;3.50;;;;;;;14.71;81.57;102022.50;6111903;19;20007;-71
2023/07/07 04:56:23;;;;;;;8.05;3.92;;;;;;;14.90;81.40;102018.22;6111534;19;20010;-70
2023/07/07 04:58:29;;;;;;;7.53;3.85;;;;;;;15.05;79.65;102022.03;6111014;19;20090;-71
2023/07/07 05:00:34;;;;;;;9.80;4.38;;;;;;;15.26;79.18;102022.09;6111088;19;20022;-71
2023/07/07 05:02:39;;;;;;;8.73;4.00;;;;;;;15.51;79.32;102027.22;6111187;19;20011;-71
2023/07/07 05:04:47;;;;;;;11.80;4.00;;;;;;;15.72;77.59;102023.69;6111498;19;20074;-70
2023/07/07 05:06:52;;;;;;;7.13;4.20;;;;;;;15.98;75.57;102022.56;6111281;19;20014;-71
2023/07/07 05:08:58;;;;;;;9.77;4.10;;;;;;;16.21;74.26;102015.34;6095058;19;20055;-71
2023/07/07 05:11:01;;;;;;;8.02;4.35;;;;;;;16.45;73.02;102018.66;6109425;19;20015;-70
2023/07/07 05:13:06;;;;;;;7.97;3.65;;;;;;;16.71;70.77;102024.53;6110643;19;20071;-71
2023/07/07 05:15:12;;;;;;;7.15;2.95;;;;;;;16.96;69.02;102021.63;6112162;19;20094;-71
2023/07/07 05:17:17;;;;;;;8.70;3.58;;;;;;;17.22;69.02;102018.56;6110335;19;20031;-68
2023/07/07 05:19:22;;;;;;;9.55;3.50;;;;;;;17.47;68.00;102030.59;6111604;19;20041;-71
2023/07/07 05:21:33;;;;;;;7.15;2.92;;;;;;;17.78;67.79;102027.22;6110897;19;20017;-70
2023/07/07 05:23:39;;;;;;;7.70;3.60;;;;;;;17.99;66.10;102036.78;6112661;19;20043;-70
2023/07/07 05:25:46;;;;;;;6.45;3.13;;;;;;;18.19;65.10;102037.50;6111424;19;20010;-71
2023/07/07 05:27:51;;;;;;;7.93;3.90;;;;;;;18.38;63.88;102030.28;6111729;19;20003;-71
2023/07/07 05:29:57;;;;;;;7.43;3.20;;;;;;;18.51;64.42;102029.56;6112285;19;20010;-71
2023/07/07 05:32:05;;;;;;;6.18;3.55;;;;;;;18.69;63.56;102027.72;6108634;19;20020;-72
2023/07/07 05:34:14;;;;;;;7.00;3.55;;;;;;;18.79;61.53;102027.13;6110724;19;20023;-71
2023/07/07 05:36:19;;;;;;;10.40;3.63;;;;;;;19.09;61.71;102026.38;6110248;19;20030;-71
2023/07/07 05:38:28;;;;;;;10.50;3.05;;;;;;;19.45;61.87;102033.16;6111319;19;20155;-71
2023/07/07 05:40:33;;;;;;;7.78;3.50;;;;;;;19.61;59.99;102035.75;6112633;19;20007;-72
2023/07/07 05:42:38;;;;;;;6.10;3.58;;;;;;;19.83;59.14;102033.56;6111309;19;20319;-74
2023/07/07 05:44:43;;;;;;;6.70;3.45;;;;;;;20.03;59.20;102024.34;6110138;19;20034;-72
2023/07/07 05:46:48;;;;;;;6.95;3.10;;;;;;;19.86;57.76;102035.19;6109723;19;20015;-74
2023/07/07 05:48:53;;;;;;;10.13;3.25;;;;;;;19.94;56.84;102038.25;6109403;19;20006;-74
2023/07/07 05:51:04;;;;;;;7.13;3.53;;;;;;;20.34;56.67;102041.13;6106891;19;20018;-72
2023/07/07 05:53:10;;;;;;;7.50;3.40;;;;;;;20.35;56.57;102038.38;6111850;19;20355;-73
2023/07/07 05:55:28;;;;;;;8.77;3.35;;;;;;;20.43;55.68;102045.00;6110131;19;23578;-73
2023/07/07 05:57:33;;;;;;;6.53;2.90;;;;;;;20.63;54.88;102035.78;6110415;19;20015;-74
2023/07/07 05:59:35;;;;;;;9.93;3.25;;;;;;;20.97;55.05;102040.66;6112929;19;20050;-74
2023/07/07 06:01:41;;;;;;;7.30;3.15;;;;;;;21.17;53.74;102039.34;6107707;19;20050;-73
2023/07/07 06:03:47;;;;;;;6.65;3.22;;;;;;;20.94;53.32;102040.00;6108776;19;20074;-73
2023/07/07 06:05:55;;;;;;;8.32;3.05;;;;;;;20.89;52.75;102034.09;6110613;19;20015;-74
2023/07/07 06:08:04;;;;;;;8.45;2.70;;;;;;;21.26;52.55;102030.72;6110173;19;20031;-73
2023/07/07 06:10:12;;;;;;;7.03;3.40;;;;;;;21.51;52.22;102031.75;6110093;19;20025;-76
2023/07/07 06:12:20;;;;;;;9.07;3.08;;;;;;;21.59;51.86;102024.09;6111464;19;20051;-75
2023/07/07 06:14:25;;;;;;;8.48;2.88;;;;;;;21.86;50.87;102034.72;6110544;19;20015;-73
2023/07/07 06:16:33;;;;;;;5.43;2.50;;;;;;;21.67;49.41;102039.63;6110433;19;20387;-73
2023/07/07 06:18:39;;;;;;;6.70;2.50;;;;;;;21.72;49.74;102034.78;6111377;19;20034;-72
2023/07/07 06:20:48;;;;;;;6.10;2.97;;;;;;;22.05;49.76;102041.47;6111627;19;20086;-73
2023/07/07 06:22:54;;;;;;;5.90;2.83;;;;;;;22.15;49.32;102045.19;6110275;19;20029;-74
2023/07/07 06:24:59;;;;;;;7.75;2.65;;;;;;;22.36;49.18;102042.84;6108505;19;20011;-72
2023/07/07 06:27:04;;;;;;;6.28;3.30;;;;;;;22.37;48.96;102044.56;6111114;19;20041;-72
2023/07/07 06:29:11;;;;;;;7.63;2.83;;;;;;;22.71;47.37;102042.97;6109629;19;20525;-72
2023/07/07 06:31:16;;;;;;;6.43;2.80;;;;;;;22.98;47.83;102040.13;6109631;19;20391;-73
2023/07/07 06:33:20;;;;;;;6.30;2.65;;;;;;;23.04;46.91;102044.19;6110878;19;20015;-71
2023/07/07 06:35:25;;;;;;;6.47;2.70;;;;;;;22.89;45.99;102038.09;6109179;19;20011;-71
2023/07/07 06:37:33;;;;;;;7.05;2.75;;;;;;;23.36;45.67;102046.28;6110425;19;20043;-70
2023/07/07 06:39:38;;;;;;;6.78;2.78;;;;;;;23.41;46.08;102042.28;6112410;19;20340;-71
2023/07/07 06:41:43;;;;;;;5.95;2.78;;;;;;;23.45;45.41;102046.44;6111812;19;20011;-71
2023/07/07 06:43:48;;;;;;;6.63;2.90;;;;;;;23.43;45.01;102047.53;6109528;19;20359;-71
2023/07/07 06:45:58;;;;;;;8.60;2.80;;;;;;;23.32;45.21;102048.34;6109065;19;20011;-71
2023/07/07 06:48:04;;;;;;;6.82;2.88;;;;;;;23.51;45.26;102049.63;6108191;19;20037;-71
2023/07/07 06:50:20;;;;;;;5.72;2.78;;;;;;;23.41;45.26;102052.16;6110930;19;20007;-70
2023/07/07 06:52:25;;;;;;;4.55;2.75;;;;;;;23.87;45.02;102048.66;6109658;19;20011;-70
2023/07/07 06:54:30;;;;;;;6.82;2.55;;;;;;;23.82;44.11;102056.22;6107642;19;20493;-72
2023/07/07 06:56:35;;;;;;;4.63;2.65;;;;;;;24.07;43.57;102057.84;6109569;19;20011;-71
2023/07/07 06:58:41;;;;;;;5.25;2.55;;;;;;;24.33;43.57;102053.09;6108668;19;20010;-73
2023/07/07 07:00:46;;;;;;;7.70;3.08;;;;;;;23.95;43.40;102056.97;6109260;19;20084;-74
2023/07/07 07:02:54;;;;;;;4.85;2.35;;;;;;;23.82;43.23;102059.75;6112994;19;20256;-73
2023/07/07 07:04:59;;;;;;;8.25;3.13;;;;;;;24.09;43.97;102055.88;6112196;19;20010;-73
2023/07/07 07:07:05;;;;;;;4.35;2.65;;;;;;;24.41;42.62;102053.34;6114162;19;20382;-73
2023/07/07 07:09:11;;;;;;;5.80;2.88;;;;;;;24.68;42.55;102060.19;6115332;19;20491;-74
2023/07/07 07:11:16;;;;;;;6.63;2.78;;;;;;;25.01;41.75;102055.72;6112325;19;20080;-74
2023/07/07 07:13:22;;;;;;;6.25;2.65;;;;;;;25.62;41.52;102054.16;6115092;19;20018;-73
2023/07/07 07:15:29;;;;;;;4.50;2.33;;;;;;;25.22;41.14;102058.47;6114640;19;20027;-73
2023/07/07 07:17:34;;;;;;;5.78;2.40;;;;;;;25.11;40.86;102056.66;6114749;19;20368;-74
2023/07/07 07:19:42;;;;;;;5.95;2.38;;;;;;;25.53;41.45;102052.22;6116369;19;20452;-74
2023/07/07 07:21:47;;;;;;;5.50;2.22;;;;;;;25.48;40.31;102064.38;6116842;19;20494;-74
2023/07/07 07:23:53;;;;;;;5.85;2.47;;;;;;;25.59;41.03;102051.72;6115688;19;19998;-75
2023/07/07 07:25:58;;;;;;;6.38;2.20;;;;;;;25.66;40.38;102054.72;6115970;19;20007;-73
2023/07/07 07:28:03;;;;;;;5.00;2.20;;;;;;;25.60;40.19;102053.41;6115470;19;20011;-72
2023/07/07 07:30:12;;;;;;;5.68;2.30;;;;;;;25.92;40.56;102063.28;6115971;19;20046;-75
2023/07/07 07:32:17;;;;;;;5.07;2.20;;;;;;;25.97;38.94;102054.81;6115012;19;20098;-75
2023/07/07 07:34:28;;;;;;;7.25;2.42;;;;;;;25.58;39.49;102065.31;6114466;19;19998;-73
2023/07/07 07:36:36;;;;;;;6.65;2.45;;;;;;;25.29;40.88;102068.59;6115323;19;20146;-72
2023/07/07 07:38:42;;;;;;;6.47;2.42;;;;;;;25.83;40.13;102070.31;6115651;19;20126;-74
2023/07/07 07:40:47;;;;;;;5.10;2.08;;;;;;;25.84;39.77;102072.03;6113261;19;20002;-74
2023/07/07 07:42:52;;;;;;;4.70;2.03;;;;;;;26.05;39.49;102063.09;6112770;19;20521;-73
2023/07/07 07:44:57;;;;;;;6.35;2.63;;;;;;;26.14;39.16;102073.03;6111239;19;20491;-72
2023/07/07 07:47:03;;;;;;;6.00;2.58;;;;;;;26.25;38.82;102070.28;6114335;19;20141;-74
2023/07/07 07:49:09;;;;;;;5.97;2.38;;;;;;;26.25;38.34;102067.59;6112386;19;20015;-74
2023/07/07 07:51:14;;;;;;;6.57;2.40;;;;;;;26.54;37.68;102074.97;6114007;19;20019;-74
2023/07/07 07:53:42;;;;;;;6.75;2.30;;;;;;;27.01;38.16;102066.28;6113621;19;20014;-74
2023/07/07 07:55:50;;;;;;;6.43;2.70;;;;;;;26.97;37.35;102071.09;6113198;19;20515;-74
2023/07/07 07:57:55;;;;;;;6.85;2.53;;;;;;;27.22;36.54;102072.41;6114247;19;20527;-74
2023/07/07 08:00:04;;;;;;;5.20;2.47;;;;;;;26.54;38.58;102069.59;6113062;19;20054;-73
2023/07/07 08:02:11;;;;;;;4.53;2.28;;;;;;;27.15;36.77;102072.13;6114789;19;19999;-73
2023/07/07 08:04:16;;;;;;;4.70;2.38;;;;;;;27.03;36.14;102067.84;6112593;19;20020;-74
2023/07/07 08:06:21;;;;;;;7.35;2.50;;;;;;;27.26;35.55;102073.88;6114939;19;20014;-74
2023/07/07 08:08:27;;;;;;;4.13;2.53;;;;;;;26.99;36.15;102077.22;6113828;19;20077;-74
2023/07/07 08:10:34;;;;;;;5.53;2.25;;;;;;;26.94;35.31;102076.78;6114498;19;20395;-74
2023/07/07 08:12:40;;;;;;;4.88;2.72;;;;;;;27.03;35.71;102077.78;6112504;19;20018;-73
2023/07/07 08:14:48;;;;;;;4.18;2.20;;;;;;;27.15;35.07;102074.81;6112918;19;20016;-75
2023/07/07 08:16:51;;;;;;;5.63;2.53;;;;;;;26.78;35.67;102073.75;6113034;19;20013;-74
2023/07/07 08:18:56;;;;;;;5.13;2.40;;;;;;;26.68;36.44;102079.13;6109966;19;20039;-73
2023/07/07 08:21:02;;;;;;;6.53;2.90;;;;;;;26.76;36.53;102082.00;6114185;19;20074;-74
2023/07/07 08:23:07;;;;;;;4.32;2.13;;;;;;;26.49;35.90;102078.03;6113504;19;20086;-73
2023/07/07 08:25:13;;;;;;;5.57;2.70;;;;;;;26.90;35.88;102080.72;6106679;19;20511;-74
2023/07/07 08:27:22;;;;;;;5.30;2.28;;;;;;;27.36;34.97;102090.06;6111532;19;20014;-73
2023/07/07 08:29:30;;;;;;;4.63;2.47;;;;;;;27.63;35.43;102083.09;6113047;19;20111;-73
2023/07/07 08:31:35;;;;;;;6.93;2.88;;;;;;;28.06;35.00;102079.06;6112970;19;20042;-72
2023/07/07 08:33:43;;;;;;;5.07;2.40;;;;;;;27.79;34.98;102083.34;6113222;19;20015;-73
2023/07/07 08:36:03;;;;;;;6.15;2.45;;;;;;;27.87;34.89;102085.34;6112442;19;20371;-74
2023/07/07 08:38:08;;;;;;;6.07;2.40;;;;;;;27.96;33.69;102079.06;6112299;19;20015;-74
2023/07/07 08:40:18;;;;;;;4.78;2.63;;;;;;;27.77;33.53;102085.34;6112849;19;20142;-74
2023/07/07 08:42:31;;;;;;;6.78;2.80;;;;;;;27.87;35.81;102080.81;6111959;19;20007;-73
2023/07/07 08:44:38;;;;;;;4.45;2.53;;;;;;;27.93;35.04;102091.00;6113413;19;20452;-73
2023/07/07 08:46:52;;;;;;;5.70;2.35;;;;;;;28.33;33.44;102084.53;6114551;19;20071;-70
2023/07/07 08:49:08;;;;;;;7.10;2.28;;;;;;;28.73;32.32;102082.50;6110094;19;20015;-71
2023/07/07 08:51:19;;;;;;;5.03;2.33;;;;;;;29.27;31.12;102083.44;6113530;19;20467;-71
2023/07/07 08:53:47;;;;;;;5.78;2.30;;;;;;;29.43;31.33;102069.19;6112503;19;20344;-72
2023/07/07 08:56:10;;;;;;;4.57;2.05;;;;;;;28.31;32.15;102073.00;6112178;19;20018;-71
2023/07/07 08:58:25;;;;;;;5.15;2.17;;;;;;;28.89;31.74;102069.16;6113091;19;20368;-70
2023/07/07 09:00:46;;;;;;;7.55;2.83;;;;;;;28.19;31.38;102077.72;6111673;19;20050;-70
2023/07/07 09:03:21;;;;;;;4.80;2.30;;;;;;;27.87;31.98;102070.00;6112182;19;20018;-71
2023/07/07 09:05:42;;;;;;;7.03;2.40;;;;;;;27.93;30.64;102074.81;6110349;19;20036;-73
2023/07/07 09:07:58;;;;;;;5.05;2.35;;;;;;;28.56;31.38;102066.06;6113901;19;20070;-74
2023/07/07 09:10:25;;;;;;;3.72;2.38;;;;;;;28.73;30.12;102074.41;6113939;19;20022;-73
2023/07/07 09:12:38;;;;;;;6.05;2.55;;;;;;;28.63;29.51;102071.75;6113049;19;20350;-73
2023/07/07 09:14:48;;;;;;;;;;;;;;;28.30;30.27;102068.56;6112994;19;20050;-74
2023/07/07 09:16:57;;;;;;;5.93;2.67;;;;;;;28.55;29.27;102075.19;6111255;19;19923;-72
2023/07/07 09:19:09;;;;;;;6.47;2.20;;;;;;;28.47;29.42;102079.66;6110968;19;20026;-74
2023/07/07 09:21:26;;;;;;;5.45;2.38;;;;;;;28.61;28.77;102088.09;6112643;19;20018;-74
2023/07/07 09:23:35;;;;;;;5.63;2.05;;;;;;;28.97;29.74;102076.53;6111847;19;20454;-73
2023/07/07 09:25:46;;;;;;;5.85;2.35;;;;;;;28.36;27.13;102076.09;6110246;19;20112;-73
2023/07/07 09:28:01;;;;;;;5.10;2.20;;;;;;;28.28;29.03;102076.00;6112560;19;20367;-74
2023/07/07 09:30:22;;;;;;;4.55;2.22;;;;;;;28.63;27.76;102078.00;6112981;19;20011;-74
2023/07/07 09:32:28;;;;;;;7.28;2.42;;;;;;;28.93;27.71;102067.00;6110792;19;20007;-75
2023/07/07 09:34:35;;;;;;;4.72;2.40;;;;;;;29.06;27.99;102078.31;6111107;19;20078;-73
2023/07/07 09:36:45;;;;;;;4.93;2.28;;;;;;;29.16;28.11;102073.69;6111340;19;20007;-73
2023/07/07 09:39:03;;;;;;;6.55;2.28;;;;;;;29.51;28.42;102066.53;6111537;19;20046;-73
2023/07/07 09:41:19;;;;;;;6.22;2.75;;;;;;;29.52;28.24;102069.13;6108801;19;20490;-73
2023/07/07 09:43:35;;;;;;;7.28;2.40;;;;;;;29.05;28.49;102066.66;6111469;19;20002;-73
2023/07/07 09:46:23;;;;;;;5.93;2.63;;;;;;;29.05;28.99;102061.25;6111157;19;20006;-73
2023/07/07 09:48:37;;;;;;;5.28;2.58;;;;;;;29.26;27.54;102070.91;6111137;19;20006;-74
2023/07/07 09:50:50;;;;;;;6.22;2.58;;;;;;;29.03;29.22;102074.03;6110423;19;20018;-73
2023/07/07 09:53:02;;;;;;;3.67;2.08;;;;;;;29.02;27.96;102071.50;6110455;19;20015;-72
2023/07/07 09:55:31;;;;;;;4.63;2.15;;;;;;;29.94;28.17;102065.72;6109799;19;20451;-72
2023/07/07 09:57:40;;;;;;;4.90;2.55;;;;;;;29.53;27.67;102067.25;6111201;19;20034;-71